Chihaya Maru — JG5612 — position and weather

sailwx.info

Track history (hours):
 
Tides and Currents Weather Stations Pressure Air Temp Water Temp Dewpoint Dewpoint Depression Visibility Wind Speed Wind Dir Waves Ship Positions

Chihaya Maru

Last reported at 2017-Dec-16 06:55 UTC. Time now 2017-Dec-16 07:01 UTC.
Position N 34°39' E 135°26'.

Length 135 m; draft 7.2 m.

Type: Cargo ship. MMSI: 431100906.

Date/timePositionNaut miles runAvg speedWind from/ knotsBaromVisibWave heightAir tempDewpointWater temp
2017-Dec-16 06:55N 34°39' E 135°26'0 0.0
2017-Dec-16 06:28N 34°39' E 135°26'0 0.1
2017-Dec-16 06:00N 34°39' E 135°26'4 7.2
2017-Dec-16 05:30N 34°38' E 135°22'611.9
2017-Dec-16 05:00N 34°33' E 135°17'612.2
2017-Dec-16 04:30N 34°29' E 135°12'611.8
2017-Dec-16 04:00N 34°25' E 135°07'611.6
2017-Dec-16 03:30N 34°21' E 135°01'510.8
2017-Dec-16 03:00N 34°16' E 134°59'611.2
2017-Dec-16 02:30N 34°11' E 134°59'611.8
2017-Dec-16 02:00N 34°05' E 134°56'611.7
2017-Dec-16 01:27N 33°59' E 134°55'511.3
2017-Dec-16 01:00N 33°54' E 134°53'611.5
2017-Dec-16 00:28N 33°48' E 134°50'511.9
2017-Dec-16 00:00N 33°44' E 134°46'14210.3
2017-Dec-15 10:15N 33°08' E 132°02'5 0.2
2017-Dec-14 07:57N 33°11' E 131°57'611.9
2017-Dec-14 07:28N 33°16' E 131°59'4 9.3
2017-Dec-14 07:00N 33°20' E 131°57'611.8
2017-Dec-14 06:30N 33°21' E 131°50'510.7
2017-Dec-14 06:00N 33°23' E 131°44'0 0.1
2017-Dec-14 05:05N 33°23' E 131°44'0 0.1
2017-Dec-14 04:53N 33°23' E 131°44'0 0.0
2017-Dec-14 04:29N 33°23' E 131°44'0 0.0
2017-Dec-14 03:53N 33°23' E 131°44'0 0.0
2017-Dec-14 03:29N 33°23' E 131°44'0 0.0
2017-Dec-14 02:05N 33°23' E 131°44'0 0.1
2017-Dec-14 01:59N 33°23' E 131°44'0 0.0
2017-Dec-14 01:29N 33°23' E 131°44'0 0.1
2017-Dec-14 00:59N 33°23' E 131°44'0 0.0
2017-Dec-14 00:29N 33°23' E 131°44'0 0.0
2017-Dec-13 23:53N 33°23' E 131°44'0 0.0
2017-Dec-13 23:29N 33°23' E 131°44'0 0.0
2017-Dec-13 22:59N 33°23' E 131°44'0 0.0
2017-Dec-13 22:29N 33°23' E 131°44'0 0.1
2017-Dec-13 21:59N 33°23' E 131°44'0 0.0
2017-Dec-13 21:29N 33°23' E 131°44'0 0.0
2017-Dec-13 20:59N 33°23' E 131°44'0 0.0
2017-Dec-13 20:29N 33°23' E 131°44'0 0.0
2017-Dec-13 19:23N 33°23' E 131°44'0 0.0
2017-Dec-13 18:59N 33°23' E 131°44'0 0.2
2017-Dec-13 18:30N 33°23' E 131°44'5 8.9
2017-Dec-13 17:59N 33°22' E 131°49'613.1
2017-Dec-13 17:30N 33°20' E 131°56'612.3
2017-Dec-13 16:59N 33°16' E 132°02'712.8
2017-Dec-13 16:28N 33°10' E 132°06'144 9.8
2017-Dec-13 01:49N 33°50' E 134°52'513.4
2017-Dec-13 01:29N 33°54' E 134°54'713.8
2017-Dec-13 00:58N 34°01' E 134°56'613.6
2017-Dec-13 00:30N 34°07' E 134°58'713.8
2017-Dec-13 00:00N 34°14' E 134°58'713.2
2017-Dec-12 23:30N 34°21' E 134°60'612.5
2017-Dec-12 23:01N 34°25' E 135°05'612.5
2017-Dec-12 22:30N 34°29' E 135°11'612.2
2017-Dec-12 22:00N 34°33' E 135°16'612.0
2017-Dec-12 21:31N 34°36' E 135°23'4 7.6
2017-Dec-12 21:01N 34°35' E 135°27'0 0.7
2017-Dec-12 20:29N 34°35' E 135°27'0 0.0
2017-Dec-12 19:56N 34°35' E 135°27'0 0.0
2017-Dec-12 19:26N 34°35' E 135°27'0 0.0
2017-Dec-12 18:56N 34°35' E 135°27'0 0.0
2017-Dec-12 18:29N 34°35' E 135°27'0 0.0
2017-Dec-12 17:56N 34°35' E 135°27'0 0.0
2017-Dec-12 17:29N 34°35' E 135°27'0 0.0
2017-Dec-12 16:56N 34°35' E 135°27'0 0.0
2017-Dec-12 16:29N 34°35' E 135°27'0 0.0
2017-Dec-12 15:56N 34°35' E 135°27'0 0.0
2017-Dec-12 15:26N 34°35' E 135°27'0 0.0
2017-Dec-12 14:59N 34°35' E 135°27'0 0.0
2017-Dec-12 14:29N 34°35' E 135°27'0 0.0
2017-Dec-12 13:59N 34°35' E 135°27'0 0.0
2017-Dec-12 13:29N 34°35' E 135°27'0 0.0
2017-Dec-12 12:59N 34°35' E 135°27'0 0.0
2017-Dec-12 12:20N 34°35' E 135°27'0 0.0
2017-Dec-12 11:59N 34°35' E 135°27'0 0.0
2017-Dec-12 11:26N 34°35' E 135°27'0 0.0
2017-Dec-12 10:59N 34°35' E 135°27'0 0.0
2017-Dec-12 10:29N 34°35' E 135°27'0 0.0
2017-Dec-12 09:59N 34°35' E 135°27'0 0.0
2017-Dec-12 09:29N 34°35' E 135°27'0 0.0
2017-Dec-12 08:56N 34°35' E 135°27'0 0.0
2017-Dec-12 08:26N 34°35' E 135°27'0 0.0
2017-Dec-12 07:59N 34°35' E 135°27'0 0.0
2017-Dec-12 07:26N 34°35' E 135°27'0 0.0
2017-Dec-12 06:56N 34°35' E 135°27'0 0.0
2017-Dec-12 06:26N 34°35' E 135°27'0 0.0
2017-Dec-12 05:59N 34°35' E 135°27'0 0.0
2017-Dec-12 05:26N 34°35' E 135°27'0 0.0
2017-Dec-12 04:59N 34°35' E 135°27'0 0.0
2017-Dec-12 04:26N 34°35' E 135°27'0 0.0
2017-Dec-12 03:59N 34°35' E 135°27'0 0.0
2017-Dec-12 03:26N 34°35' E 135°27'0 0.0
2017-Dec-12 02:59N 34°35' E 135°27'0 0.0
2017-Dec-12 02:26N 34°35' E 135°27'0 0.0
2017-Dec-12 01:56N 34°35' E 135°27'0 0.0
2017-Dec-12 01:23N 34°35' E 135°27'0 0.0
2017-Dec-12 00:56N 34°35' E 135°27'0 0.0
2017-Dec-12 00:20N 34°35' E 135°27'0 0.0
2017-Dec-11 23:59N 34°35' E 135°27'0 0.0
2017-Dec-11 23:29N 34°35' E 135°27'0 0.0
2017-Dec-11 22:59N 34°35' E 135°27'0 0.0
2017-Dec-11 22:26N 34°35' E 135°27'0 0.0
2017-Dec-11 21:59N 34°35' E 135°27'0 0.0
2017-Dec-11 21:30N 34°35' E 135°27'3 6.3
2017-Dec-11 21:00N 34°36' E 135°24'2 4.2
2017-Dec-11 20:30N 34°37' E 135°21'4 8.5
2017-Dec-11 20:01N 34°39' E 135°26'0 0.2
2017-Dec-11 19:27N 34°39' E 135°26'0 0.0
2017-Dec-11 19:00N 34°39' E 135°26'0 0.0
2017-Dec-11 18:30N 34°39' E 135°26'0 0.0
2017-Dec-11 18:00N 34°39' E 135°26'0 0.0
2017-Dec-11 17:30N 34°39' E 135°26'0 0.0
2017-Dec-11 17:00N 34°39' E 135°26'0 0.0
2017-Dec-11 16:30N 34°39' E 135°26'0 0.0
2017-Dec-11 16:00N 34°39' E 135°26'0 0.0
2017-Dec-11 15:30N 34°39' E 135°26'0 0.0
2017-Dec-11 15:00N 34°39' E 135°26'0 0.0
2017-Dec-11 14:30N 34°39' E 135°26'0 0.0
2017-Dec-11 14:00N 34°39' E 135°26'0 0.0
2017-Dec-11 13:30N 34°39' E 135°26'0 0.0
2017-Dec-11 13:00N 34°39' E 135°26'0 0.0
2017-Dec-11 12:27N 34°39' E 135°26'0 0.0
2017-Dec-11 12:00N 34°39' E 135°26'0 0.0
2017-Dec-11 11:30N 34°39' E 135°26'0 0.0
2017-Dec-11 11:00N 34°39' E 135°26'0 0.0
2017-Dec-11 10:30N 34°39' E 135°26'0 0.0
2017-Dec-11 10:00N 34°39' E 135°26'0 0.0
2017-Dec-11 09:30N 34°39' E 135°26'0 0.0
2017-Dec-11 08:57N 34°39' E 135°26'0 0.0
2017-Dec-11 08:30N 34°39' E 135°26'0 0.0
2017-Dec-11 07:57N 34°39' E 135°26'0 0.0
2017-Dec-11 07:30N 34°39' E 135°26'0 0.0
2017-Dec-11 07:00N 34°39' E 135°26'0 0.0
2017-Dec-11 06:30N 34°39' E 135°26'0 0.0
2017-Dec-11 06:00N 34°39' E 135°26'0 0.0
2017-Dec-11 05:30N 34°39' E 135°26'0 0.0
2017-Dec-11 05:00N 34°39' E 135°26'0 0.0
2017-Dec-11 04:30N 34°39' E 135°26'0 0.0
2017-Dec-11 04:00N 34°39' E 135°26'0 0.0
2017-Dec-11 03:27N 34°39' E 135°26'0 0.0
2017-Dec-11 03:00N 34°39' E 135°26'0 0.0
2017-Dec-11 02:30N 34°39' E 135°26'0 0.0
2017-Dec-11 01:57N 34°39' E 135°26'0 0.0
2017-Dec-11 01:30N 34°39' E 135°26'0 0.0
2017-Dec-11 01:00N 34°39' E 135°26'0 0.0
2017-Dec-11 00:27N 34°39' E 135°26'0 0.0
2017-Dec-11 00:00N 34°39' E 135°26'0 0.0
2017-Dec-10 23:30N 34°39' E 135°26'0 0.0
2017-Dec-10 23:00N 34°39' E 135°26'0 0.0
2017-Dec-10 22:30N 34°39' E 135°26'1 1.8
2017-Dec-10 22:00N 34°39' E 135°25'4 8.5
2017-Dec-10 21:30N 34°37' E 135°21'3 5.8
2017-Dec-10 20:58N 34°35' E 135°17'0 0.2
2017-Dec-10 20:28N 34°35' E 135°18'0 0.0
2017-Dec-10 19:58N 34°35' E 135°18'0 0.0
2017-Dec-10 19:28N 34°35' E 135°18'0 0.1
2017-Dec-10 18:58N 34°35' E 135°18'0 0.0
2017-Dec-10 18:28N 34°35' E 135°18'0 0.0
2017-Dec-10 17:58N 34°35' E 135°18'0 0.0
2017-Dec-10 17:28N 34°35' E 135°18'0 0.1
2017-Dec-10 16:58N 34°35' E 135°18'0 0.0
2017-Dec-10 16:28N 34°35' E 135°18'0 0.0
2017-Dec-10 15:58N 34°35' E 135°18'0 0.0
2017-Dec-10 15:28N 34°35' E 135°18'0 0.0
2017-Dec-10 14:58N 34°35' E 135°18'0 0.0
2017-Dec-10 14:28N 34°35' E 135°18'0 0.0
2017-Dec-10 13:58N 34°35' E 135°18'0 0.0
2017-Dec-10 13:28N 34°35' E 135°18'0 0.0
2017-Dec-10 12:58N 34°35' E 135°18'0 0.0
2017-Dec-10 12:28N 34°35' E 135°18'0 0.0
2017-Dec-10 11:58N 34°35' E 135°18'0 0.0
2017-Dec-10 11:28N 34°35' E 135°18'0 0.0
2017-Dec-10 10:58N 34°35' E 135°18'0 0.0
2017-Dec-10 10:28N 34°35' E 135°18'0 0.0
2017-Dec-10 09:58N 34°35' E 135°18'1 2.7
2017-Dec-10 09:30N 34°34' E 135°17'612.3
2017-Dec-10 09:00N 34°30' E 135°12'612.3
2017-Dec-10 08:30N 34°25' E 135°07'612.6
2017-Dec-10 08:01N 34°21' E 135°01'612.4
2017-Dec-10 07:31N 34°15' E 134°59'612.5
2017-Dec-10 07:00N 34°09' E 134°59'612.8
2017-Dec-10 06:30N 34°03' E 134°56'612.6
2017-Dec-10 06:00N 33°57' E 134°54'612.7
2017-Dec-10 05:30N 33°50' E 134°52'612.6
2017-Dec-10 05:00N 33°45' E 134°48'14310.0
2017-Dec-09 14:43N 33°08' E 132°02'211.5
2017-Dec-09 14:30N 33°08' E 131°59'3 0.2
2017-Dec-09 01:55N 33°10' E 131°57'512.3
2017-Dec-09 01:30N 33°14' E 131°59'4 8.9
2017-Dec-09 01:00N 33°19' E 131°58'612.1
2017-Dec-09 00:30N 33°21' E 131°52'611.7
2017-Dec-09 00:00N 33°22' E 131°45'0 0.4
2017-Dec-08 23:29N 33°22' E 131°45'0 0.0
2017-Dec-08 22:47N 33°22' E 131°45'0 0.0
2017-Dec-08 22:29N 33°22' E 131°45'0 0.0
2017-Dec-08 21:59N 33°22' E 131°45'0 0.0
2017-Dec-08 21:29N 33°22' E 131°45'0 0.1
2017-Dec-08 20:47N 33°22' E 131°45'0 0.0
2017-Dec-08 20:29N 33°22' E 131°45'0 0.0
2017-Dec-08 19:59N 33°22' E 131°45'0 0.0
2017-Dec-08 19:29N 33°22' E 131°45'0 0.0
2017-Dec-08 18:53N 33°22' E 131°45'0 0.1
2017-Dec-08 18:29N 33°22' E 131°45'0 0.1
2017-Dec-08 17:59N 33°22' E 131°45'0 0.1
2017-Dec-08 17:29N 33°22' E 131°45'0 0.0
2017-Dec-08 16:53N 33°22' E 131°45'0 0.0
2017-Dec-08 16:29N 33°22' E 131°45'0 0.0
2017-Dec-08 15:47N 33°22' E 131°45'0 0.0
2017-Dec-08 15:29N 33°22' E 131°45'0 0.0
2017-Dec-08 14:59N 33°22' E 131°45'0 0.0
2017-Dec-08 14:17N 33°22' E 131°45'0 0.0
2017-Dec-08 13:53N 33°22' E 131°45'0 0.0
2017-Dec-08 13:29N 33°22' E 131°45'0 0.0
2017-Dec-08 12:59N 33°22' E 131°45'0 0.0
2017-Dec-08 12:23N 33°22' E 131°45'0 0.0
2017-Dec-08 11:53N 33°22' E 131°45'0 0.1
2017-Dec-08 11:29N 33°22' E 131°45'0 0.0
2017-Dec-08 10:59N 33°22' E 131°45'0 0.0
2017-Dec-08 10:29N 33°22' E 131°45'0 0.0
2017-Dec-08 09:59N 33°22' E 131°45'0 0.0
2017-Dec-08 09:29N 33°22' E 131°45'0 0.0
2017-Dec-08 08:59N 33°22' E 131°45'0 0.1
2017-Dec-08 08:29N 33°22' E 131°45'0 0.0
2017-Dec-08 07:59N 33°22' E 131°45'0 0.1
2017-Dec-08 07:23N 33°22' E 131°45'0 0.1
2017-Dec-08 06:53N 33°22' E 131°45'0 0.0
2017-Dec-08 06:29N 33°22' E 131°45'0 0.0
2017-Dec-08 05:53N 33°22' E 131°45'0 0.0
2017-Dec-08 05:23N 33°22' E 131°45'0 0.0
2017-Dec-08 04:47N 33°22' E 131°45'0 0.1
2017-Dec-08 04:29N 33°22' E 131°45'0 0.1
2017-Dec-08 03:59N 33°22' E 131°45'0 0.0
2017-Dec-08 03:23N 33°22' E 131°45'0 0.1
2017-Dec-08 02:59N 33°22' E 131°45'0 0.1
2017-Dec-08 02:29N 33°22' E 131°45'0 0.1
2017-Dec-08 01:41N 33°22' E 131°45'0 0.3
2017-Dec-08 01:29N 33°22' E 131°45'0 0.1
2017-Dec-08 00:53N 33°22' E 131°45'0 0.0
2017-Dec-08 00:29N 33°22' E 131°45'0 0.0
2017-Dec-07 23:59N 33°22' E 131°45'0 0.0
2017-Dec-07 23:26N 33°22' E 131°45'0 0.0
2017-Dec-07 22:59N 33°22' E 131°45'0 0.0
2017-Dec-07 22:23N 33°22' E 131°45'0 0.0
2017-Dec-07 21:47N 33°22' E 131°45'0 0.0
2017-Dec-07 21:29N 33°22' E 131°45'0 0.0
2017-Dec-07 20:59N 33°22' E 131°45'0 0.0
2017-Dec-07 20:29N 33°22' E 131°45'0 0.0
2017-Dec-07 19:53N 33°22' E 131°45'0 0.0
2017-Dec-07 19:29N 33°22' E 131°45'0 0.0
2017-Dec-07 18:59N 33°22' E 131°45'0 0.0
2017-Dec-07 18:29N 33°22' E 131°45'0 0.0
2017-Dec-07 17:59N 33°22' E 131°45'0 0.1
2017-Dec-07 17:29N 33°22' E 131°45'0 0.0
2017-Dec-07 16:59N 33°22' E 131°45'0 0.1
2017-Dec-07 16:29N 33°22' E 131°45'0 0.2
2017-Dec-07 15:54N 33°22' E 131°45'3 6.8
2017-Dec-07 15:30N 33°23' E 131°48'612.6
2017-Dec-07 15:00N 33°20' E 131°54'713.3
2017-Dec-07 14:30N 33°17' E 132°01'813.5
2017-Dec-07 13:54N 33°10' E 132°06'  
Track history (hours):
 
Tides and Currents Weather Stations Pressure Air Temp Water Temp Dewpoint Dewpoint Depression Visibility Wind Speed Wind Dir Waves Ship Positions

Chihaya Maru

Last reported at 2017-Dec-16 06:55 UTC. Time now 2017-Dec-16 07:01 UTC.
Position N 34°39' E 135°26'.

Length 135 m; draft 7.2 m.

Type: Cargo ship. MMSI: 431100906.

Date/timePositionNaut miles runAvg speedWind from/ knotsBaromVisibWave heightAir tempDewpointWater temp
2017-Dec-16 06:55N 34°39' E 135°26'0 0.0
2017-Dec-16 06:28N 34°39' E 135°26'0 0.1
2017-Dec-16 06:00N 34°39' E 135°26'4 7.2
2017-Dec-16 05:30N 34°38' E 135°22'611.9
2017-Dec-16 05:00N 34°33' E 135°17'612.2
2017-Dec-16 04:30N 34°29' E 135°12'611.8
2017-Dec-16 04:00N 34°25' E 135°07'611.6
2017-Dec-16 03:30N 34°21' E 135°01'510.8
2017-Dec-16 03:00N 34°16' E 134°59'611.2
2017-Dec-16 02:30N 34°11' E 134°59'611.8
2017-Dec-16 02:00N 34°05' E 134°56'611.7
2017-Dec-16 01:27N 33°59' E 134°55'511.3
2017-Dec-16 01:00N 33°54' E 134°53'611.5
2017-Dec-16 00:28N 33°48' E 134°50'511.9
2017-Dec-16 00:00N 33°44' E 134°46'14210.3
2017-Dec-15 10:15N 33°08' E 132°02'5 0.2
2017-Dec-14 07:57N 33°11' E 131°57'611.9
2017-Dec-14 07:28N 33°16' E 131°59'4 9.3
2017-Dec-14 07:00N 33°20' E 131°57'611.8
2017-Dec-14 06:30N 33°21' E 131°50'510.7
2017-Dec-14 06:00N 33°23' E 131°44'0 0.1
2017-Dec-14 05:05N 33°23' E 131°44'0 0.1
2017-Dec-14 04:53N 33°23' E 131°44'0 0.0
2017-Dec-14 04:29N 33°23' E 131°44'0 0.0
2017-Dec-14 03:53N 33°23' E 131°44'0 0.0
2017-Dec-14 03:29N 33°23' E 131°44'0 0.0
2017-Dec-14 02:05N 33°23' E 131°44'0 0.1
2017-Dec-14 01:59N 33°23' E 131°44'0 0.0
2017-Dec-14 01:29N 33°23' E 131°44'0 0.1
2017-Dec-14 00:59N 33°23' E 131°44'0 0.0
2017-Dec-14 00:29N 33°23' E 131°44'0 0.0
2017-Dec-13 23:53N 33°23' E 131°44'0 0.0
2017-Dec-13 23:29N 33°23' E 131°44'0 0.0
2017-Dec-13 22:59N 33°23' E 131°44'0 0.0
2017-Dec-13 22:29N 33°23' E 131°44'0 0.1
2017-Dec-13 21:59N 33°23' E 131°44'0 0.0
2017-Dec-13 21:29N 33°23' E 131°44'0 0.0
2017-Dec-13 20:59N 33°23' E 131°44'0 0.0
2017-Dec-13 20:29N 33°23' E 131°44'0 0.0
2017-Dec-13 19:23N 33°23' E 131°44'0 0.0
2017-Dec-13 18:59N 33°23' E 131°44'0 0.2
2017-Dec-13 18:30N 33°23' E 131°44'5 8.9
2017-Dec-13 17:59N 33°22' E 131°49'613.1
2017-Dec-13 17:30N 33°20' E 131°56'612.3
2017-Dec-13 16:59N 33°16' E 132°02'712.8
2017-Dec-13 16:28N 33°10' E 132°06'144 9.8
2017-Dec-13 01:49N 33°50' E 134°52'513.4
2017-Dec-13 01:29N 33°54' E 134°54'713.8
2017-Dec-13 00:58N 34°01' E 134°56'613.6
2017-Dec-13 00:30N 34°07' E 134°58'713.8
2017-Dec-13 00:00N 34°14' E 134°58'713.2
2017-Dec-12 23:30N 34°21' E 134°60'612.5
2017-Dec-12 23:01N 34°25' E 135°05'612.5
2017-Dec-12 22:30N 34°29' E 135°11'612.2
2017-Dec-12 22:00N 34°33' E 135°16'612.0
2017-Dec-12 21:31N 34°36' E 135°23'4 7.6
2017-Dec-12 21:01N 34°35' E 135°27'0 0.7
2017-Dec-12 20:29N 34°35' E 135°27'0 0.0
2017-Dec-12 19:56N 34°35' E 135°27'0 0.0
2017-Dec-12 19:26N 34°35' E 135°27'0 0.0
2017-Dec-12 18:56N 34°35' E 135°27'0 0.0
2017-Dec-12 18:29N 34°35' E 135°27'0 0.0
2017-Dec-12 17:56N 34°35' E 135°27'0 0.0
2017-Dec-12 17:29N 34°35' E 135°27'0 0.0
2017-Dec-12 16:56N 34°35' E 135°27'0 0.0
2017-Dec-12 16:29N 34°35' E 135°27'0 0.0
2017-Dec-12 15:56N 34°35' E 135°27'0 0.0
2017-Dec-12 15:26N 34°35' E 135°27'0 0.0
2017-Dec-12 14:59N 34°35' E 135°27'0 0.0
2017-Dec-12 14:29N 34°35' E 135°27'0 0.0
2017-Dec-12 13:59N 34°35' E 135°27'0 0.0
2017-Dec-12 13:29N 34°35' E 135°27'0 0.0
2017-Dec-12 12:59N 34°35' E 135°27'0 0.0
2017-Dec-12 12:20N 34°35' E 135°27'0 0.0
2017-Dec-12 11:59N 34°35' E 135°27'0 0.0
2017-Dec-12 11:26N 34°35' E 135°27'0 0.0
2017-Dec-12 10:59N 34°35' E 135°27'0 0.0
2017-Dec-12 10:29N 34°35' E 135°27'0 0.0
2017-Dec-12 09:59N 34°35' E 135°27'0 0.0
2017-Dec-12 09:29N 34°35' E 135°27'0 0.0
2017-Dec-12 08:56N 34°35' E 135°27'0 0.0
2017-Dec-12 08:26N 34°35' E 135°27'0 0.0
2017-Dec-12 07:59N 34°35' E 135°27'0 0.0
2017-Dec-12 07:26N 34°35' E 135°27'0 0.0
2017-Dec-12 06:56N 34°35' E 135°27'0 0.0
2017-Dec-12 06:26N 34°35' E 135°27'0 0.0
2017-Dec-12 05:59N 34°35' E 135°27'0 0.0
2017-Dec-12 05:26N 34°35' E 135°27'0 0.0
2017-Dec-12 04:59N 34°35' E 135°27'0 0.0
2017-Dec-12 04:26N 34°35' E 135°27'0 0.0
2017-Dec-12 03:59N 34°35' E 135°27'0 0.0
2017-Dec-12 03:26N 34°35' E 135°27'0 0.0
2017-Dec-12 02:59N 34°35' E 135°27'0 0.0
2017-Dec-12 02:26N 34°35' E 135°27'0 0.0
2017-Dec-12 01:56N 34°35' E 135°27'0 0.0
2017-Dec-12 01:23N 34°35' E 135°27'0 0.0
2017-Dec-12 00:56N 34°35' E 135°27'0 0.0
2017-Dec-12 00:20N 34°35' E 135°27'0 0.0
2017-Dec-11 23:59N 34°35' E 135°27'0 0.0
2017-Dec-11 23:29N 34°35' E 135°27'0 0.0
2017-Dec-11 22:59N 34°35' E 135°27'0 0.0
2017-Dec-11 22:26N 34°35' E 135°27'0 0.0
2017-Dec-11 21:59N 34°35' E 135°27'0 0.0
2017-Dec-11 21:30N 34°35' E 135°27'3 6.3
2017-Dec-11 21:00N 34°36' E 135°24'2 4.2
2017-Dec-11 20:30N 34°37' E 135°21'4 8.5
2017-Dec-11 20:01N 34°39' E 135°26'0 0.2
2017-Dec-11 19:27N 34°39' E 135°26'0 0.0
2017-Dec-11 19:00N 34°39' E 135°26'0 0.0
2017-Dec-11 18:30N 34°39' E 135°26'0 0.0
2017-Dec-11 18:00N 34°39' E 135°26'0 0.0
2017-Dec-11 17:30N 34°39' E 135°26'0 0.0
2017-Dec-11 17:00N 34°39' E 135°26'0 0.0
2017-Dec-11 16:30N 34°39' E 135°26'0 0.0
2017-Dec-11 16:00N 34°39' E 135°26'0 0.0
2017-Dec-11 15:30N 34°39' E 135°26'0 0.0
2017-Dec-11 15:00N 34°39' E 135°26'0 0.0
2017-Dec-11 14:30N 34°39' E 135°26'0 0.0
2017-Dec-11 14:00N 34°39' E 135°26'0 0.0
2017-Dec-11 13:30N 34°39' E 135°26'0 0.0
2017-Dec-11 13:00N 34°39' E 135°26'0 0.0
2017-Dec-11 12:27N 34°39' E 135°26'0 0.0
2017-Dec-11 12:00N 34°39' E 135°26'0 0.0
2017-Dec-11 11:30N 34°39' E 135°26'0 0.0
2017-Dec-11 11:00N 34°39' E 135°26'0 0.0
2017-Dec-11 10:30N 34°39' E 135°26'0 0.0
2017-Dec-11 10:00N 34°39' E 135°26'0 0.0
2017-Dec-11 09:30N 34°39' E 135°26'0 0.0
2017-Dec-11 08:57N 34°39' E 135°26'0 0.0
2017-Dec-11 08:30N 34°39' E 135°26'0 0.0
2017-Dec-11 07:57N 34°39' E 135°26'0 0.0
2017-Dec-11 07:30N 34°39' E 135°26'0 0.0
2017-Dec-11 07:00N 34°39' E 135°26'0 0.0
2017-Dec-11 06:30N 34°39' E 135°26'0 0.0
2017-Dec-11 06:00N 34°39' E 135°26'0 0.0
2017-Dec-11 05:30N 34°39' E 135°26'0 0.0
2017-Dec-11 05:00N 34°39' E 135°26'0 0.0
2017-Dec-11 04:30N 34°39' E 135°26'0 0.0
2017-Dec-11 04:00N 34°39' E 135°26'0 0.0
2017-Dec-11 03:27N 34°39' E 135°26'0 0.0
2017-Dec-11 03:00N 34°39' E 135°26'0 0.0
2017-Dec-11 02:30N 34°39' E 135°26'0 0.0
2017-Dec-11 01:57N 34°39' E 135°26'0 0.0
2017-Dec-11 01:30N 34°39' E 135°26'0 0.0
2017-Dec-11 01:00N 34°39' E 135°26'0 0.0
2017-Dec-11 00:27N 34°39' E 135°26'0 0.0
2017-Dec-11 00:00N 34°39' E 135°26'0 0.0
2017-Dec-10 23:30N 34°39' E 135°26'0 0.0
2017-Dec-10 23:00N 34°39' E 135°26'0 0.0
2017-Dec-10 22:30N 34°39' E 135°26'1 1.8
2017-Dec-10 22:00N 34°39' E 135°25'4 8.5
2017-Dec-10 21:30N 34°37' E 135°21'3 5.8
2017-Dec-10 20:58N 34°35' E 135°17'0 0.2
2017-Dec-10 20:28N 34°35' E 135°18'0 0.0
2017-Dec-10 19:58N 34°35' E 135°18'0 0.0
2017-Dec-10 19:28N 34°35' E 135°18'0 0.1
2017-Dec-10 18:58N 34°35' E 135°18'0 0.0
2017-Dec-10 18:28N 34°35' E 135°18'0 0.0
2017-Dec-10 17:58N 34°35' E 135°18'0 0.0
2017-Dec-10 17:28N 34°35' E 135°18'0 0.1
2017-Dec-10 16:58N 34°35' E 135°18'0 0.0
2017-Dec-10 16:28N 34°35' E 135°18'0 0.0
2017-Dec-10 15:58N 34°35' E 135°18'0 0.0
2017-Dec-10 15:28N 34°35' E 135°18'0 0.0
2017-Dec-10 14:58N 34°35' E 135°18'0 0.0
2017-Dec-10 14:28N 34°35' E 135°18'0 0.0
2017-Dec-10 13:58N 34°35' E 135°18'0 0.0
2017-Dec-10 13:28N 34°35' E 135°18'0 0.0
2017-Dec-10 12:58N 34°35' E 135°18'0 0.0
2017-Dec-10 12:28N 34°35' E 135°18'0 0.0
2017-Dec-10 11:58N 34°35' E 135°18'0 0.0
2017-Dec-10 11:28N 34°35' E 135°18'0 0.0
2017-Dec-10 10:58N 34°35' E 135°18'0 0.0
2017-Dec-10 10:28N 34°35' E 135°18'0 0.0
2017-Dec-10 09:58N 34°35' E 135°18'1 2.7
2017-Dec-10 09:30N 34°34' E 135°17'612.3
2017-Dec-10 09:00N 34°30' E 135°12'612.3
2017-Dec-10 08:30N 34°25' E 135°07'612.6
2017-Dec-10 08:01N 34°21' E 135°01'612.4
2017-Dec-10 07:31N 34°15' E 134°59'612.5
2017-Dec-10 07:00N 34°09' E 134°59'612.8
2017-Dec-10 06:30N 34°03' E 134°56'612.6
2017-Dec-10 06:00N 33°57' E 134°54'612.7
2017-Dec-10 05:30N 33°50' E 134°52'612.6
2017-Dec-10 05:00N 33°45' E 134°48'14310.0
2017-Dec-09 14:43N 33°08' E 132°02'211.5
2017-Dec-09 14:30N 33°08' E 131°59'3 0.2
2017-Dec-09 01:55N 33°10' E 131°57'512.3
2017-Dec-09 01:30N 33°14' E 131°59'4 8.9
2017-Dec-09 01:00N 33°19' E 131°58'612.1
2017-Dec-09 00:30N 33°21' E 131°52'611.7
2017-Dec-09 00:00N 33°22' E 131°45'0 0.4
2017-Dec-08 23:29N 33°22' E 131°45'0 0.0
2017-Dec-08 22:47N 33°22' E 131°45'0 0.0
2017-Dec-08 22:29N 33°22' E 131°45'0 0.0
2017-Dec-08 21:59N 33°22' E 131°45'0 0.0
2017-Dec-08 21:29N 33°22' E 131°45'0 0.1
2017-Dec-08 20:47N 33°22' E 131°45'0 0.0
2017-Dec-08 20:29N 33°22' E 131°45'0 0.0
2017-Dec-08 19:59N 33°22' E 131°45'0 0.0
2017-Dec-08 19:29N 33°22' E 131°45'0 0.0
2017-Dec-08 18:53N 33°22' E 131°45'0 0.1
2017-Dec-08 18:29N 33°22' E 131°45'0 0.1
2017-Dec-08 17:59N 33°22' E 131°45'0 0.1
2017-Dec-08 17:29N 33°22' E 131°45'0 0.0
2017-Dec-08 16:53N 33°22' E 131°45'0 0.0
2017-Dec-08 16:29N 33°22' E 131°45'0 0.0
2017-Dec-08 15:47N 33°22' E 131°45'0 0.0
2017-Dec-08 15:29N 33°22' E 131°45'0 0.0
2017-Dec-08 14:59N 33°22' E 131°45'0 0.0
2017-Dec-08 14:17N 33°22' E 131°45'0 0.0
2017-Dec-08 13:53N 33°22' E 131°45'0 0.0
2017-Dec-08 13:29N 33°22' E 131°45'0 0.0
2017-Dec-08 12:59N 33°22' E 131°45'0 0.0
2017-Dec-08 12:23N 33°22' E 131°45'0 0.0
2017-Dec-08 11:53N 33°22' E 131°45'0 0.1
2017-Dec-08 11:29N 33°22' E 131°45'0 0.0
2017-Dec-08 10:59N 33°22' E 131°45'0 0.0
2017-Dec-08 10:29N 33°22' E 131°45'0 0.0
2017-Dec-08 09:59N 33°22' E 131°45'0 0.0
2017-Dec-08 09:29N 33°22' E 131°45'0 0.0
2017-Dec-08 08:59N 33°22' E 131°45'0 0.1
2017-Dec-08 08:29N 33°22' E 131°45'0 0.0
2017-Dec-08 07:59N 33°22' E 131°45'0 0.1
2017-Dec-08 07:23N 33°22' E 131°45'0 0.1
2017-Dec-08 06:53N 33°22' E 131°45'0 0.0
2017-Dec-08 06:29N 33°22' E 131°45'0 0.0
2017-Dec-08 05:53N 33°22' E 131°45'0 0.0
2017-Dec-08 05:23N 33°22' E 131°45'0 0.0
2017-Dec-08 04:47N 33°22' E 131°45'0 0.1
2017-Dec-08 04:29N 33°22' E 131°45'0 0.1
2017-Dec-08 03:59N 33°22' E 131°45'0 0.0
2017-Dec-08 03:23N 33°22' E 131°45'0 0.1
2017-Dec-08 02:59N 33°22' E 131°45'0 0.1
2017-Dec-08 02:29N 33°22' E 131°45'0 0.1
2017-Dec-08 01:41N 33°22' E 131°45'0 0.3
2017-Dec-08 01:29N 33°22' E 131°45'0 0.1
2017-Dec-08 00:53N 33°22' E 131°45'0 0.0
2017-Dec-08 00:29N 33°22' E 131°45'0 0.0
2017-Dec-07 23:59N 33°22' E 131°45'0 0.0
2017-Dec-07 23:26N 33°22' E 131°45'0 0.0
2017-Dec-07 22:59N 33°22' E 131°45'0 0.0
2017-Dec-07 22:23N 33°22' E 131°45'0 0.0
2017-Dec-07 21:47N 33°22' E 131°45'0 0.0
2017-Dec-07 21:29N 33°22' E 131°45'0 0.0
2017-Dec-07 20:59N 33°22' E 131°45'0 0.0
2017-Dec-07 20:29N 33°22' E 131°45'0 0.0
2017-Dec-07 19:53N 33°22' E 131°45'0 0.0
2017-Dec-07 19:29N 33°22' E 131°45'0 0.0
2017-Dec-07 18:59N 33°22' E 131°45'0 0.0
2017-Dec-07 18:29N 33°22' E 131°45'0 0.0
2017-Dec-07 17:59N 33°22' E 131°45'0 0.1
2017-Dec-07 17:29N 33°22' E 131°45'0 0.0
2017-Dec-07 16:59N 33°22' E 131°45'0 0.1
2017-Dec-07 16:29N 33°22' E 131°45'0 0.2
2017-Dec-07 15:54N 33°22' E 131°45'3 6.8
2017-Dec-07 15:30N 33°23' E 131°48'612.6
2017-Dec-07 15:00N 33°20' E 131°54'713.3
2017-Dec-07 14:30N 33°17' E 132°01'813.5
2017-Dec-07 13:54N 33°10' E 132°06'  

Dump ship's entire track history